sensor_id;sensor_type;location;lat;lon;timestamp;pressure;altitude;pressure_sealevel;temperature;humidity
12213;BME280;6169;44.158;22.788;2024-02-23T00:02:14;100720.25;;;6.11;47.16
12213;BME280;6169;44.158;22.788;2024-02-23T00:07:16;100723.00;;;5.84;48.46
12213;BME280;6169;44.158;22.788;2024-02-23T00:12:20;100725.69;;;5.98;48.00
12213;BME280;6169;44.158;22.788;2024-02-23T00:17:22;100725.25;;;6.07;48.00
12213;BME280;6169;44.158;22.788;2024-02-23T00:22:24;100722.00;;;5.85;48.48
12213;BME280;6169;44.158;22.788;2024-02-23T00:27:28;100609.19;;;5.61;46.50
12213;BME280;6169;44.158;22.788;2024-02-23T00:32:30;100709.88;;;6.08;47.60
12213;BME280;6169;44.158;22.788;2024-02-23T00:37:33;100721.94;;;5.99;48.16
12213;BME280;6169;44.158;22.788;2024-02-23T00:42:37;100726.13;;;5.95;47.71
12213;BME280;6169;44.158;22.788;2024-02-23T00:47:39;100724.66;;;5.99;48.52
12213;BME280;6169;44.158;22.788;2024-02-23T00:52:41;100720.84;;;6.20;47.25
12213;BME280;6169;44.158;22.788;2024-02-23T00:57:45;100718.38;;;6.11;48.67
12213;BME280;6169;44.158;22.788;2024-02-23T01:02:47;100722.53;;;6.07;48.56
12213;BME280;6169;44.158;22.788;2024-02-23T01:07:49;100711.94;;;6.06;47.75
12213;BME280;6169;44.158;22.788;2024-02-23T01:12:52;100692.97;;;6.19;47.18
12213;BME280;6169;44.158;22.788;2024-02-23T01:17:54;100692.66;;;5.76;49.06
12213;BME280;6169;44.158;22.788;2024-02-23T01:22:57;100687.53;;;6.26;47.61
12213;BME280;6169;44.158;22.788;2024-02-23T01:28:00;100691.34;;;6.11;48.21
12213;BME280;6169;44.158;22.788;2024-02-23T01:33:02;100683.91;;;5.94;48.60
12213;BME280;6169;44.158;22.788;2024-02-23T01:38:04;100673.88;;;6.14;47.56
12213;BME280;6169;44.158;22.788;2024-02-23T01:43:08;100670.59;;;5.99;48.16
12213;BME280;6169;44.158;22.788;2024-02-23T01:48:10;100678.09;;;5.97;48.28
12213;BME280;6169;44.158;22.788;2024-02-23T01:53:13;100670.03;;;5.70;49.66
12213;BME280;6169;44.158;22.788;2024-02-23T01:58:17;100668.91;;;6.04;48.33
12213;BME280;6169;44.158;22.788;2024-02-23T02:03:19;100619.09;;;5.74;47.98
12213;BME280;6169;44.158;22.788;2024-02-23T02:08:21;100665.25;;;5.72;48.63
12213;BME280;6169;44.158;22.788;2024-02-23T02:13:27;100678.97;;;5.71;48.72
12213;BME280;6169;44.158;22.788;2024-02-23T02:18:29;100663.81;;;5.70;47.65
12213;BME280;6169;44.158;22.788;2024-02-23T02:23:32;100671.25;;;5.81;47.49
12213;BME280;6169;44.158;22.788;2024-02-23T02:28:35;100662.91;;;6.02;46.82
12213;BME280;6169;44.158;22.788;2024-02-23T02:33:37;100670.25;;;6.27;45.37
12213;BME280;6169;44.158;22.788;2024-02-23T02:38:39;100652.53;;;5.93;46.29
12213;BME280;6169;44.158;22.788;2024-02-23T02:43:43;100665.81;;;6.01;46.15
12213;BME280;6169;44.158;22.788;2024-02-23T02:48:45;100666.19;;;6.04;45.50
12213;BME280;6169;44.158;22.788;2024-02-23T02:53:47;100678.16;;;5.57;45.41
12213;BME280;6169;44.158;22.788;2024-02-23T02:58:50;100674.47;;;5.38;47.05
12213;BME280;6169;44.158;22.788;2024-02-23T03:03:52;100683.41;;;5.18;47.73
12213;BME280;6169;44.158;22.788;2024-02-23T03:08:54;100672.78;;;4.84;47.20
12213;BME280;6169;44.158;22.788;2024-02-23T03:13:58;100671.56;;;4.73;47.52
12213;BME280;6169;44.158;22.788;2024-02-23T03:19:00;100687.06;;;4.64;47.14
12213;BME280;6169;44.158;22.788;2024-02-23T03:24:02;100683.59;;;4.84;47.08
12213;BME280;6169;44.158;22.788;2024-02-23T03:29:06;100673.22;;;4.67;47.14
12213;BME280;6169;44.158;22.788;2024-02-23T03:34:08;100677.50;;;4.48;48.38
12213;BME280;6169;44.158;22.788;2024-02-23T03:39:10;100676.16;;;4.24;48.76
12213;BME280;6169;44.158;22.788;2024-02-23T03:44:13;100677.09;;;4.58;46.99
12213;BME280;6169;44.158;22.788;2024-02-23T03:49:15;100664.44;;;4.59;46.42
12213;BME280;6169;44.158;22.788;2024-02-23T03:54:17;100677.56;;;4.62;45.98
12213;BME280;6169;44.158;22.788;2024-02-23T03:59:21;100681.34;;;4.19;46.06
12213;BME280;6169;44.158;22.788;2024-02-23T04:04:23;100666.06;;;4.33;46.29
12213;BME280;6169;44.158;22.788;2024-02-23T04:09:25;100678.03;;;4.24;47.57
12213;BME280;6169;44.158;22.788;2024-02-23T04:14:29;100687.56;;;4.20;46.30
12213;BME280;6169;44.158;22.788;2024-02-23T04:19:31;100683.50;;;4.44;46.01
12213;BME280;6169;44.158;22.788;2024-02-23T04:24:33;100683.41;;;4.17;45.97
12213;BME280;6169;44.158;22.788;2024-02-23T04:29:36;100690.72;;;3.54;48.29
12213;BME280;6169;44.158;22.788;2024-02-23T04:34:39;100684.47;;;3.81;47.94
12213;BME280;6169;44.158;22.788;2024-02-23T04:39:43;100690.69;;;3.82;47.07
12213;BME280;6169;44.158;22.788;2024-02-23T04:44:47;100685.28;;;3.75;48.16
12213;BME280;6169;44.158;22.788;2024-02-23T04:49:49;100673.03;;;3.38;48.23
12213;BME280;6169;44.158;22.788;2024-02-23T04:54:52;100692.34;;;3.20;48.80
12213;BME280;6169;44.158;22.788;2024-02-23T04:59:55;100693.44;;;3.26;49.01
12213;BME280;6169;44.158;22.788;2024-02-23T05:04:57;100709.50;;;2.91;50.52
12213;BME280;6169;44.158;22.788;2024-02-23T05:09:59;100708.19;;;3.08;50.20
12213;BME280;6169;44.158;22.788;2024-02-23T05:15:04;100714.72;;;3.49;48.88
12213;BME280;6169;44.158;22.788;2024-02-23T05:20:07;100718.94;;;3.30;48.81
12213;BME280;6169;44.158;22.788;2024-02-23T05:25:10;100712.31;;;3.04;48.12
12213;BME280;6169;44.158;22.788;2024-02-23T05:30:14;100719.06;;;3.22;48.03
12213;BME280;6169;44.158;22.788;2024-02-23T05:35:17;100708.31;;;3.00;48.75
12213;BME280;6169;44.158;22.788;2024-02-23T05:40:19;100705.63;;;3.22;48.66
12213;BME280;6169;44.158;22.788;2024-02-23T05:45:22;100708.78;;;3.60;48.08
12213;BME280;6169;44.158;22.788;2024-02-23T05:50:24;100712.22;;;3.82;47.25
12213;BME280;6169;44.158;22.788;2024-02-23T05:55:26;100713.53;;;3.86;46.91
12213;BME280;6169;44.158;22.788;2024-02-23T06:00:30;100718.44;;;4.17;46.35
12213;BME280;6169;44.158;22.788;2024-02-23T06:05:32;100730.22;;;4.58;45.85
12213;BME280;6169;44.158;22.788;2024-02-23T06:10:34;100726.53;;;4.65;46.58
12213;BME280;6169;44.158;22.788;2024-02-23T06:15:39;100736.78;;;4.35;48.13
12213;BME280;6169;44.158;22.788;2024-02-23T06:20:41;100732.78;;;4.79;46.81
12213;BME280;6169;44.158;22.788;2024-02-23T06:25:43;100737.97;;;5.00;47.57
12213;BME280;6169;44.158;22.788;2024-02-23T06:30:47;100735.47;;;5.65;48.52
12213;BME280;6169;44.158;22.788;2024-02-23T06:35:49;100742.13;;;5.89;50.27
12213;BME280;6169;44.158;22.788;2024-02-23T06:40:52;100749.41;;;6.02;51.82
12213;BME280;6169;44.158;22.788;2024-02-23T06:45:57;100751.47;;;6.59;50.50
12213;BME280;6169;44.158;22.788;2024-02-23T06:50:59;100742.69;;;6.18;49.58
12213;BME280;6169;44.158;22.788;2024-02-23T06:56:01;100743.75;;;6.04;48.82
12213;BME280;6169;44.158;22.788;2024-02-23T07:01:05;100749.78;;;6.57;47.41
12213;BME280;6169;44.158;22.788;2024-02-23T07:06:07;100744.88;;;6.48;47.61
12213;BME280;6169;44.158;22.788;2024-02-23T07:11:10;100745.09;;;6.78;47.75
12213;BME280;6169;44.158;22.788;2024-02-23T07:16:14;100740.16;;;6.68;48.33
12213;BME280;6169;44.158;22.788;2024-02-23T07:21:17;100748.84;;;7.15;46.89
12213;BME280;6169;44.158;22.788;2024-02-23T07:26:19;100752.69;;;7.33;46.70
12213;BME280;6169;44.158;22.788;2024-02-23T07:31:24;100755.72;;;7.43;46.48
12213;BME280;6169;44.158;22.788;2024-02-23T07:36:26;100755.44;;;7.19;47.23
12213;BME280;6169;44.158;22.788;2024-02-23T07:41:28;100745.78;;;7.80;46.47
12213;BME280;6169;44.158;22.788;2024-02-23T07:46:32;100749.25;;;7.44;48.15
12213;BME280;6169;44.158;22.788;2024-02-23T07:51:34;100738.50;;;7.81;46.96
12213;BME280;6169;44.158;22.788;2024-02-23T07:56:36;100728.25;;;8.20;44.64
12213;BME280;6169;44.158;22.788;2024-02-23T08:01:39;100743.53;;;8.51;44.96
12213;BME280;6169;44.158;22.788;2024-02-23T08:06:42;100738.41;;;8.43;43.85
12213;BME280;6169;44.158;22.788;2024-02-23T08:11:44;100739.13;;;8.98;43.22
12213;BME280;6169;44.158;22.788;2024-02-23T08:16:48;100735.63;;;9.21;41.89
12213;BME280;6169;44.158;22.788;2024-02-23T08:21:51;100738.72;;;9.25;41.26
12213;BME280;6169;44.158;22.788;2024-02-23T08:26:53;100749.50;;;9.43;40.90
12213;BME280;6169;44.158;22.788;2024-02-23T08:31:56;100747.88;;;9.66;39.89
12213;BME280;6169;44.158;22.788;2024-02-23T08:36:58;100752.09;;;10.09;39.81
12213;BME280;6169;44.158;22.788;2024-02-23T08:42:00;100740.44;;;9.97;40.15
12213;BME280;6169;44.158;22.788;2024-02-23T08:47:04;100730.59;;;10.48;38.80
12213;BME280;6169;44.158;22.788;2024-02-23T08:52:06;100726.88;;;10.25;39.04
12213;BME280;6169;44.158;22.788;2024-02-23T08:57:08;100737.72;;;10.77;38.28
12213;BME280;6169;44.158;22.788;2024-02-23T09:02:12;100746.78;;;11.12;38.13
12213;BME280;6169;44.158;22.788;2024-02-23T09:07:14;100746.41;;;10.91;38.42
12213;BME280;6169;44.158;22.788;2024-02-23T09:12:16;100746.47;;;11.42;37.30
12213;BME280;6169;44.158;22.788;2024-02-23T09:17:20;100746.53;;;11.64;37.39
12213;BME280;6169;44.158;22.788;2024-02-23T09:22:22;100742.25;;;11.51;37.57
12213;BME280;6169;44.158;22.788;2024-02-23T09:27:24;100734.97;;;11.40;39.21
12213;BME280;6169;44.158;22.788;2024-02-23T09:32:28;100722.84;;;11.47;39.50
12213;BME280;6169;44.158;22.788;2024-02-23T09:37:30;100728.69;;;12.12;37.45
12213;BME280;6169;44.158;22.788;2024-02-23T09:42:33;100732.47;;;12.77;37.51
12213;BME280;6169;44.158;22.788;2024-02-23T09:47:38;100726.09;;;12.00;37.27
12213;BME280;6169;44.158;22.788;2024-02-23T09:52:40;100717.25;;;11.37;37.67
12213;BME280;6169;44.158;22.788;2024-02-23T09:57:43;100698.78;;;12.71;36.32
12213;BME280;6169;44.158;22.788;2024-02-23T10:02:47;100690.34;;;11.63;37.74
12213;BME280;6169;44.158;22.788;2024-02-23T10:07:49;100691.22;;;12.07;38.22
12213;BME280;6169;44.158;22.788;2024-02-23T10:12:54;100687.19;;;11.88;37.50
12213;BME280;6169;44.158;22.788;2024-02-23T10:17:58;100692.97;;;12.63;36.02
12213;BME280;6169;44.158;22.788;2024-02-23T10:23:00;100683.53;;;13.02;35.64
12213;BME280;6169;44.158;22.788;2024-02-23T10:28:03;100682.00;;;13.54;35.35
12213;BME280;6169;44.158;22.788;2024-02-23T10:33:07;100679.19;;;13.44;34.63
12213;BME280;6169;44.158;22.788;2024-02-23T10:38:11;100685.00;;;13.95;34.57
12213;BME280;6169;44.158;22.788;2024-02-23T10:43:20;100673.84;;;14.12;33.71
12213;BME280;6169;44.158;22.788;2024-02-23T10:48:29;100670.59;;;14.20;33.26
12213;BME280;6169;44.158;22.788;2024-02-23T10:53:31;100662.72;;;14.39;33.31
12213;BME280;6169;44.158;22.788;2024-02-23T10:58:33;100662.22;;;13.84;32.88
12213;BME280;6169;44.158;22.788;2024-02-23T11:03:38;100656.91;;;14.25;33.52
12213;BME280;6169;44.158;22.788;2024-02-23T11:08:42;100650.38;;;14.42;32.57
12213;BME280;6169;44.158;22.788;2024-02-23T11:13:44;100637.38;;;14.01;33.23
12213;BME280;6169;44.158;22.788;2024-02-23T11:18:48;100641.56;;;14.29;33.01
12213;BME280;6169;44.158;22.788;2024-02-23T11:23:50;100640.53;;;14.46;33.32
12213;BME280;6169;44.158;22.788;2024-02-23T11:28:53;100618.09;;;14.54;33.26
12213;BME280;6169;44.158;22.788;2024-02-23T11:33:57;100605.19;;;14.49;32.44
12213;BME280;6169;44.158;22.788;2024-02-23T11:39:00;100610.06;;;14.17;33.04
12213;BME280;6169;44.158;22.788;2024-02-23T11:44:03;100611.19;;;14.41;33.42
12213;BME280;6169;44.158;22.788;2024-02-23T11:49:09;100597.69;;;13.93;33.77
12213;BME280;6169;44.158;22.788;2024-02-23T11:54:11;100596.19;;;14.90;32.98
12213;BME280;6169;44.158;22.788;2024-02-23T11:59:13;100592.34;;;15.01;32.23
12213;BME280;6169;44.158;22.788;2024-02-23T12:04:17;100597.22;;;15.35;32.01
12213;BME280;6169;44.158;22.788;2024-02-23T12:09:19;100578.53;;;15.57;31.68
12213;BME280;6169;44.158;22.788;2024-02-23T12:14:21;100574.97;;;15.52;32.01
12213;BME280;6169;44.158;22.788;2024-02-23T12:19:25;100572.91;;;14.92;31.67
12213;BME280;6169;44.158;22.788;2024-02-23T12:24:27;100570.97;;;14.93;32.57
12213;BME280;6169;44.158;22.788;2024-02-23T12:29:29;100557.81;;;14.74;33.04
12213;BME280;6169;44.158;22.788;2024-02-23T12:34:33;100542.47;;;14.73;33.03
12213;BME280;6169;44.158;22.788;2024-02-23T12:39:36;100546.28;;;14.82;32.88
12213;BME280;6169;44.158;22.788;2024-02-23T12:44:38;100547.09;;;14.98;32.40
12213;BME280;6169;44.158;22.788;2024-02-23T12:49:41;100547.41;;;14.87;32.81
12213;BME280;6169;44.158;22.788;2024-02-23T12:54:43;100556.47;;;14.67;33.02
12213;BME280;6169;44.158;22.788;2024-02-23T12:59:45;100561.41;;;14.65;33.26
12213;BME280;6169;44.158;22.788;2024-02-23T13:04:48;100564.63;;;14.51;33.07
12213;BME280;6169;44.158;22.788;2024-02-23T13:09:50;100544.91;;;14.34;34.56
12213;BME280;6169;44.158;22.788;2024-02-23T13:14:52;100553.16;;;14.54;34.21
12213;BME280;6169;44.158;22.788;2024-02-23T13:19:56;100532.03;;;14.80;34.25
12213;BME280;6169;44.158;22.788;2024-02-23T13:24:58;100533.16;;;14.74;34.44
12213;BME280;6169;44.158;22.788;2024-02-23T13:30:00;100515.59;;;14.80;34.39
12213;BME280;6169;44.158;22.788;2024-02-23T13:35:04;100513.13;;;14.89;33.92
12213;BME280;6169;44.158;22.788;2024-02-23T13:40:08;100513.41;;;14.88;33.71
12213;BME280;6169;44.158;22.788;2024-02-23T13:45:10;100516.94;;;14.98;33.43
12213;BME280;6169;44.158;22.788;2024-02-23T13:50:16;100526.56;;;14.50;34.83
12213;BME280;6169;44.158;22.788;2024-02-23T13:55:18;100534.25;;;14.63;35.06
12213;BME280;6169;44.158;22.788;2024-02-23T14:00:21;100533.19;;;14.64;35.14
12213;BME280;6169;44.158;22.788;2024-02-23T14:05:24;100542.75;;;14.87;34.83
12213;BME280;6169;44.158;22.788;2024-02-23T14:10:27;100543.81;;;14.45;34.98
12213;BME280;6169;44.158;22.788;2024-02-23T14:15:29;100543.56;;;14.77;34.67
12213;BME280;6169;44.158;22.788;2024-02-23T14:20:32;100532.34;;;14.58;34.49
12213;BME280;6169;44.158;22.788;2024-02-23T14:25:34;100528.78;;;14.58;35.06
12213;BME280;6169;44.158;22.788;2024-02-23T14:30:36;100528.25;;;14.61;34.79
12213;BME280;6169;44.158;22.788;2024-02-23T14:35:40;100515.06;;;14.58;34.68
12213;BME280;6169;44.158;22.788;2024-02-23T14:40:42;100511.81;;;14.56;35.50
12213;BME280;6169;44.158;22.788;2024-02-23T14:45:44;100512.88;;;14.55;35.40
12213;BME280;6169;44.158;22.788;2024-02-23T14:50:48;100514.00;;;14.59;34.84
12213;BME280;6169;44.158;22.788;2024-02-23T14:55:50;100526.28;;;14.41;35.25
12213;BME280;6169;44.158;22.788;2024-02-23T15:00:53;100506.88;;;14.53;34.75
12213;BME280;6169;44.158;22.788;2024-02-23T15:05:56;100501.31;;;14.89;33.90
12213;BME280;6169;44.158;22.788;2024-02-23T15:10:58;100509.59;;;14.73;34.15
12213;BME280;6169;44.158;22.788;2024-02-23T15:16:00;100509.59;;;14.48;34.68
12213;BME280;6169;44.158;22.788;2024-02-23T15:21:04;100507.38;;;14.40;34.44
12213;BME280;6169;44.158;22.788;2024-02-23T15:26:06;100494.00;;;14.58;34.96
12213;BME280;6169;44.158;22.788;2024-02-23T15:31:08;100503.28;;;14.42;35.55
12213;BME280;6169;44.158;22.788;2024-02-23T15:36:12;100507.94;;;14.31;36.11
12213;BME280;6169;44.158;22.788;2024-02-23T15:41:16;100495.06;;;14.17;36.16
12213;BME280;6169;44.158;22.788;2024-02-23T15:46:18;100507.31;;;13.83;37.13
12213;BME280;6169;44.158;22.788;2024-02-23T15:51:21;100494.63;;;13.52;37.70
12213;BME280;6169;44.158;22.788;2024-02-23T15:56:24;100502.97;;;13.24;38.85
12213;BME280;6169;44.158;22.788;2024-02-23T16:01:26;100497.13;;;13.06;38.80
12213;BME280;6169;44.158;22.788;2024-02-23T16:06:29;100504.38;;;12.79;39.13
12213;BME280;6169;44.158;22.788;2024-02-23T16:11:34;100513.50;;;12.95;38.92
12213;BME280;6169;44.158;22.788;2024-02-23T16:16:37;100529.72;;;12.10;40.89
12213;BME280;6169;44.158;22.788;2024-02-23T16:21:43;100519.25;;;12.62;39.92
12213;BME280;6169;44.158;22.788;2024-02-23T16:26:46;100511.78;;;12.52;39.76
12213;BME280;6169;44.158;22.788;2024-02-23T16:31:48;100522.31;;;12.38;40.65
12213;BME280;6169;44.158;22.788;2024-02-23T16:36:52;100524.69;;;12.29;40.63
12213;BME280;6169;44.158;22.788;2024-02-23T16:41:54;100543.28;;;12.32;40.32
12213;BME280;6169;44.158;22.788;2024-02-23T16:46:56;100545.59;;;12.19;40.86
12213;BME280;6169;44.158;22.788;2024-02-23T16:51:59;100535.59;;;11.97;41.49
12213;BME280;6169;44.158;22.788;2024-02-23T16:57:01;100548.66;;;11.95;41.78
12213;BME280;6169;44.158;22.788;2024-02-23T17:02:04;100545.31;;;11.66;42.09
12213;BME280;6169;44.158;22.788;2024-02-23T17:07:08;100544.59;;;11.32;42.06
12213;BME280;6169;44.158;22.788;2024-02-23T17:12:10;100545.88;;;11.46;41.71
12213;BME280;6169;44.158;22.788;2024-02-23T17:17:12;100551.84;;;11.43;42.33
12213;BME280;6169;44.158;22.788;2024-02-23T17:22:15;100556.41;;;10.82;43.08
12213;BME280;6169;44.158;22.788;2024-02-23T17:27:19;100552.25;;;11.13;42.52
12213;BME280;6169;44.158;22.788;2024-02-23T17:32:21;100563.56;;;11.05;41.89
12213;BME280;6169;44.158;22.788;2024-02-23T17:37:24;100389.06;;;10.17;41.61
12213;BME280;6169;44.158;22.788;2024-02-23T17:42:26;100564.53;;;11.15;42.31
12213;BME280;6169;44.158;22.788;2024-02-23T17:47:28;100561.25;;;10.96;41.68
12213;BME280;6169;44.158;22.788;2024-02-23T17:52:32;100552.66;;;11.05;41.75
12213;BME280;6169;44.158;22.788;2024-02-23T17:57:34;100556.53;;;11.09;42.14
12213;BME280;6169;44.158;22.788;2024-02-23T18:02:36;100558.63;;;11.01;42.27
12213;BME280;6169;44.158;22.788;2024-02-23T18:07:39;100564.69;;;10.58;42.71
12213;BME280;6169;44.158;22.788;2024-02-23T18:12:42;100578.84;;;10.89;42.40
12213;BME280;6169;44.158;22.788;2024-02-23T18:17:44;100575.06;;;10.90;42.00
12213;BME280;6169;44.158;22.788;2024-02-23T18:22:47;100584.47;;;10.82;42.59
12213;BME280;6169;44.158;22.788;2024-02-23T18:27:50;100577.25;;;10.59;43.22
12213;BME280;6169;44.158;22.788;2024-02-23T18:32:52;100577.81;;;10.61;43.65
12213;BME280;6169;44.158;22.788;2024-02-23T18:37:55;100589.69;;;10.55;43.75
12213;BME280;6169;44.158;22.788;2024-02-23T18:42:57;100590.81;;;10.25;44.02
12213;BME280;6169;44.158;22.788;2024-02-23T18:47:59;100586.25;;;9.85;44.56
12213;BME280;6169;44.158;22.788;2024-02-23T18:53:03;100589.75;;;9.98;44.36
12213;BME280;6169;44.158;22.788;2024-02-23T18:58:06;100591.22;;;9.65;45.12
12213;BME280;6169;44.158;22.788;2024-02-23T19:03:08;100592.56;;;9.39;44.81
12213;BME280;6169;44.158;22.788;2024-02-23T19:08:12;100587.94;;;9.63;43.66
12213;BME280;6169;44.158;22.788;2024-02-23T19:13:14;100584.97;;;9.76;42.88
12213;BME280;6169;44.158;22.788;2024-02-23T19:18:17;100597.78;;;9.40;43.92
12213;BME280;6169;44.158;22.788;2024-02-23T19:23:22;100554.34;;;9.05;44.22
12213;BME280;6169;44.158;22.788;2024-02-23T19:28:24;100606.28;;;9.32;43.80
12213;BME280;6169;44.158;22.788;2024-02-23T19:33:26;100609.47;;;9.17;43.90
12213;BME280;6169;44.158;22.788;2024-02-23T19:38:30;100603.59;;;9.32;43.53
12213;BME280;6169;44.158;22.788;2024-02-23T19:43:32;100600.50;;;8.93;44.53
12213;BME280;6169;44.158;22.788;2024-02-23T19:48:34;100596.84;;;8.99;44.15
12213;BME280;6169;44.158;22.788;2024-02-23T19:53:37;100606.13;;;8.56;44.84
12213;BME280;6169;44.158;22.788;2024-02-23T19:58:40;100605.19;;;8.63;44.89
12213;BME280;6169;44.158;22.788;2024-02-23T20:03:42;100601.28;;;8.59;45.10
12213;BME280;6169;44.158;22.788;2024-02-23T20:08:45;100599.19;;;8.42;45.31
12213;BME280;6169;44.158;22.788;2024-02-23T20:13:47;100606.22;;;8.20;45.96
12213;BME280;6169;44.158;22.788;2024-02-23T20:18:49;100611.88;;;8.30;45.93
12213;BME280;6169;44.158;22.788;2024-02-23T20:23:53;100599.63;;;8.57;44.19
12213;BME280;6169;44.158;22.788;2024-02-23T20:28:55;100602.25;;;8.34;44.94
12213;BME280;6169;44.158;22.788;2024-02-23T20:33:57;100603.66;;;8.06;44.87
12213;BME280;6169;44.158;22.788;2024-02-23T20:39:01;100604.22;;;8.27;44.39
12213;BME280;6169;44.158;22.788;2024-02-23T20:44:03;100593.97;;;8.29;44.67
12213;BME280;6169;44.158;22.788;2024-02-23T20:49:05;100595.69;;;8.11;45.21
12213;BME280;6169;44.158;22.788;2024-02-23T20:54:09;100593.44;;;7.90;45.70
12213;BME280;6169;44.158;22.788;2024-02-23T20:59:11;100582.03;;;7.70;45.51
12213;BME280;6169;44.158;22.788;2024-02-23T21:04:13;100592.72;;;7.64;45.48
12213;BME280;6169;44.158;22.788;2024-02-23T21:09:16;100586.31;;;7.59;45.94
12213;BME280;6169;44.158;22.788;2024-02-23T21:14:18;100586.47;;;7.45;46.41
12213;BME280;6169;44.158;22.788;2024-02-23T21:19:20;100595.88;;;7.80;45.96
12213;BME280;6169;44.158;22.788;2024-02-23T21:24:24;100529.94;;;7.12;45.12
12213;BME280;6169;44.158;22.788;2024-02-23T21:29:26;100583.66;;;7.15;46.54
12213;BME280;6169;44.158;22.788;2024-02-23T21:34:28;100571.59;;;7.11;46.60
12213;BME280;6169;44.158;22.788;2024-02-23T21:39:32;100583.03;;;7.13;46.06
12213;BME280;6169;44.158;22.788;2024-02-23T21:44:34;100579.56;;;7.06;46.46
12213;BME280;6169;44.158;22.788;2024-02-23T21:49:36;100567.25;;;6.85;46.98
12213;BME280;6169;44.158;22.788;2024-02-23T21:54:40;100567.97;;;6.49;47.74
12213;BME280;6169;44.158;22.788;2024-02-23T21:59:42;100576.44;;;6.59;47.45
12213;BME280;6169;44.158;22.788;2024-02-23T22:04:44;100584.13;;;6.62;47.91
12213;BME280;6169;44.158;22.788;2024-02-23T22:09:48;100575.31;;;6.67;47.16
12213;BME280;6169;44.158;22.788;2024-02-23T22:14:56;100587.81;;;6.68;46.62
12213;BME280;6169;44.158;22.788;2024-02-23T22:20:00;100598.19;;;6.46;46.27
12213;BME280;6169;44.158;22.788;2024-02-23T22:25:03;100589.53;;;6.62;47.13
12213;BME280;6169;44.158;22.788;2024-02-23T22:30:07;100582.22;;;6.63;46.71
12213;BME280;6169;44.158;22.788;2024-02-23T22:35:11;100592.53;;;6.16;47.37
12213;BME280;6169;44.158;22.788;2024-02-23T22:40:15;100587.41;;;6.39;46.76
12213;BME280;6169;44.158;22.788;2024-02-23T22:45:17;100592.94;;;6.19;47.66
12213;BME280;6169;44.158;22.788;2024-02-23T22:50:19;100600.00;;;6.20;47.59
12213;BME280;6169;44.158;22.788;2024-02-23T22:55:24;100598.28;;;5.81;47.75
12213;BME280;6169;44.158;22.788;2024-02-23T23:00:26;100582.59;;;6.09;47.74
12213;BME280;6169;44.158;22.788;2024-02-23T23:05:28;100590.94;;;6.08;47.14
12213;BME280;6169;44.158;22.788;2024-02-23T23:10:31;100595.72;;;6.06;47.45
12213;BME280;6169;44.158;22.788;2024-02-23T23:15:33;100600.56;;;5.91;48.18
12213;BME280;6169;44.158;22.788;2024-02-23T23:20:35;100549.69;;;5.74;48.00
12213;BME280;6169;44.158;22.788;2024-02-23T23:25:39;100603.44;;;5.96;46.88
12213;BME280;6169;44.158;22.788;2024-02-23T23:30:41;100597.16;;;5.50;48.70
12213;BME280;6169;44.158;22.788;2024-02-23T23:35:43;100585.59;;;5.95;48.04
12213;BME280;6169;44.158;22.788;2024-02-23T23:40:46;100594.78;;;5.80;48.28
12213;BME280;6169;44.158;22.788;2024-02-23T23:45:48;100605.19;;;5.70;48.74
12213;BME280;6169;44.158;22.788;2024-02-23T23:50:50;100608.72;;;5.77;48.49
12213;BME280;6169;44.158;22.788;2024-02-23T23:55:54;100600.75;;;5.82;48.42
